Winterville, Georgia
Current Conditions -  °F | °C
As of 10:51 AM on Saturday 20 Dec 2014 (Local Time) from KAHN Reporting Station
Haze Haze  
Wind Chill: 45°   Ceiling: 500
Heat Index: 47°   Visibility: 4mi
Dew Point: 44°   Wind: 5mph
Humidity: 90%   Direction: 50°NE
Pressure: 30.22"   Gusts: NA
Location:  33.97°N, 83.28°W
Report Text: KAHN 201551Z 05004KT 4SM BR BKN005 BKN018 OVC040 08/07 A3022 RMK AO2 SLP236 T00830067
Loading
Personal Weather Stations






























Interactive Weather Map New forecast layout! Learn more

10-Day Weather Forecast

Advertisements
Track Severe Weather on mobile